Gray Mountain, Arizona
Current Conditions -  °F | °C
As of 10:54 AM on Friday 31 Oct 2014 (Local Time) from KGCN Reporting Station
Clear Clear  
Wind Chill: 69°   Ceiling: Unl
Heat Index: 69°   Visibility: 10mi
Dew Point: 34°   Wind: 15mph
Humidity: 27%   Direction: 210°SSW
Pressure: 30.19"   Gusts: 28mph
Location:  35.75°N, 111.48°W
Report Text: KGCN 311754Z 21013G24KT 10SM CLR 21/01 A3019 RMK AO2 SLP164 T02060011 10206 20000 58009
Loading
Personal Weather Stations






























Interactive Weather Map
Tropical Storm Tracking
New forecast layout! Learn more

10-Day Weather Forecast

Advertisements
Track Severe Weather on mobile